createdAt,value
2018-06-17T00:01:53.531Z,11.53
2018-06-17T00:03:57.028Z,12.70
2018-06-17T00:06:00.648Z,10.90
2018-06-17T00:08:04.291Z,11.17
2018-06-17T00:10:07.864Z,10.57
2018-06-17T00:12:11.359Z,12.43
2018-06-17T00:14:14.855Z,13.20
2018-06-17T00:16:18.382Z,11.17
2018-06-17T00:18:21.868Z,11.13
2018-06-17T00:20:25.491Z,12.53
2018-06-17T00:22:28.978Z,13.77
2018-06-17T00:24:32.587Z,10.37
2018-06-17T00:26:36.079Z,12.60
2018-06-17T00:28:39.585Z,10.53
2018-06-17T00:30:43.126Z,10.87
2018-06-17T00:32:46.663Z,12.23
2018-06-17T00:34:50.167Z,10.53
2018-06-17T00:36:53.772Z,13.13
2018-06-17T00:38:57.241Z,9.80
2018-06-17T00:41:00.884Z,10.00
2018-06-17T00:43:04.371Z,9.87
2018-06-17T00:45:08.019Z,10.50
2018-06-17T00:47:11.540Z,11.37
2018-06-17T00:49:15.050Z,12.83
2018-06-17T00:51:18.222Z,9.83
2018-06-17T00:53:21.792Z,10.40
2018-06-17T00:55:25.312Z,10.50
2018-06-17T00:57:53.346Z,12.20
2018-06-17T01:00:03.780Z,11.40
2018-06-17T01:02:07.384Z,11.43
2018-06-17T01:04:10.848Z,13.23
2018-06-17T01:06:14.394Z,10.17
2018-06-17T01:08:17.867Z,10.33
2018-06-17T01:10:21.358Z,10.67
2018-06-17T01:12:24.870Z,11.00
2018-06-17T01:14:28.401Z,10.87
2018-06-17T01:16:31.871Z,11.03
2018-06-17T01:18:35.385Z,10.80
2018-06-17T01:20:38.970Z,11.73
2018-06-17T01:22:42.415Z,10.07
2018-06-17T01:24:45.646Z,10.20
2018-06-17T01:26:49.248Z,10.47
2018-06-17T01:28:53.000Z,11.40
2018-06-17T01:30:56.146Z,10.70
2018-06-17T01:32:59.668Z,11.00
2018-06-17T01:35:03.190Z,11.00
2018-06-17T01:37:06.831Z,10.07
2018-06-17T01:39:10.543Z,11.33
2018-06-17T01:41:14.090Z,11.60
2018-06-17T01:43:17.575Z,12.30
2018-06-17T01:45:21.091Z,11.03
2018-06-17T01:47:24.632Z,10.10
2018-06-17T01:49:28.179Z,11.90
2018-06-17T01:51:31.647Z,11.43
2018-06-17T01:53:35.318Z,11.70
2018-06-17T01:55:38.819Z,11.83
2018-06-17T01:57:42.288Z,11.23
2018-06-17T01:59:45.825Z,11.93
2018-06-17T02:01:49.409Z,12.77
2018-06-17T02:03:58.325Z,12.77
2018-06-17T02:06:07.087Z,14.67
2018-06-17T02:08:15.802Z,11.20
2018-06-17T02:10:24.457Z,13.63
2018-06-17T02:12:27.943Z,13.07
2018-06-17T02:14:36.859Z,10.80
2018-06-17T02:16:40.948Z,14.33
2018-06-17T02:18:44.109Z,11.67
2018-06-17T02:20:47.612Z,11.07
2018-06-17T02:22:51.091Z,12.50
2018-06-17T02:24:54.679Z,11.27
2018-06-17T02:26:58.247Z,11.40
2018-06-17T02:29:01.720Z,10.80
2018-06-17T02:31:05.304Z,13.20
2018-06-17T02:33:08.785Z,10.63
2018-06-17T02:35:12.379Z,11.27
2018-06-17T02:37:15.896Z,10.90
2018-06-17T02:39:19.391Z,10.93
2018-06-17T02:41:22.905Z,12.47
2018-06-17T02:43:26.412Z,10.63
2018-06-17T02:45:35.210Z,12.17
2018-06-17T02:47:43.960Z,10.97
2018-06-17T02:49:48.586Z,11.27
2018-06-17T02:51:57.261Z,12.97
2018-06-17T02:54:06.038Z,11.93
2018-06-17T02:56:09.526Z,11.03
2018-06-17T02:58:12.987Z,10.50
2018-06-17T03:00:16.482Z,13.47
2018-06-17T03:02:20.144Z,10.53
2018-06-17T03:04:23.722Z,10.97
2018-06-17T03:06:27.211Z,10.43
2018-06-17T03:08:30.770Z,10.93
2018-06-17T03:10:34.292Z,13.13
2018-06-17T03:12:37.815Z,10.97
2018-06-17T03:14:41.356Z,12.73
2018-06-17T03:16:44.883Z,13.37
2018-06-17T03:18:48.354Z,15.77
2018-06-17T03:20:51.847Z,12.53
2018-06-17T03:22:55.608Z,13.47
2018-06-17T03:25:04.408Z,10.77
2018-06-17T03:27:13.056Z,12.63
2018-06-17T03:29:21.710Z,12.17
2018-06-17T03:31:25.261Z,11.40
2018-06-17T03:33:52.063Z,10.63
2018-06-17T03:36:01.194Z,12.23
2018-06-17T03:38:04.700Z,12.97
2018-06-17T03:40:08.235Z,10.60
2018-06-17T03:42:11.695Z,12.37
2018-06-17T03:44:15.173Z,11.53
2018-06-17T03:46:18.672Z,10.53
2018-06-17T03:48:22.193Z,10.93
2018-06-17T03:50:25.714Z,13.03
2018-06-17T03:52:29.242Z,10.37
2018-06-17T03:54:32.709Z,10.83
2018-06-17T03:56:36.379Z,11.10
2018-06-17T03:58:39.879Z,11.70
2018-06-17T04:00:43.471Z,11.90
2018-06-17T04:02:46.967Z,11.70
2018-06-17T04:04:55.682Z,11.53
2018-06-17T04:06:59.148Z,14.00
2018-06-17T04:09:02.707Z,14.53
2018-06-17T04:11:05.871Z,12.07
2018-06-17T04:13:09.473Z,13.20
2018-06-17T04:15:13.076Z,11.17
2018-06-17T04:17:16.588Z,10.27
2018-06-17T04:19:20.111Z,15.13
2018-06-17T04:21:23.648Z,10.60
2018-06-17T04:23:27.146Z,11.90
2018-06-17T04:25:30.705Z,12.53
2018-06-17T04:27:34.161Z,9.17
2018-06-17T04:29:37.634Z,13.90
2018-06-17T04:31:41.120Z,9.93
2018-06-17T04:33:44.580Z,9.10
2018-06-17T04:35:48.146Z,9.87
2018-06-17T04:37:51.828Z,9.40
2018-06-17T04:39:54.974Z,8.67
2018-06-17T04:41:58.484Z,8.73
2018-06-17T04:44:02.012Z,7.73
2018-06-17T04:46:05.543Z,7.90
2018-06-17T04:48:09.063Z,6.77
2018-06-17T04:50:12.616Z,9.47
2018-06-17T04:52:16.096Z,8.67
2018-06-17T04:54:19.603Z,8.70
2018-06-17T04:56:23.155Z,9.73
2018-06-17T04:58:26.679Z,6.97
2018-06-17T05:00:30.379Z,11.33
2018-06-17T05:02:33.836Z,6.73
2018-06-17T05:04:37.357Z,12.40
2018-06-17T05:06:40.836Z,9.37
2018-06-17T05:08:44.311Z,5.50
2018-06-17T05:10:47.875Z,8.40
2018-06-17T05:12:51.373Z,6.67
2018-06-17T05:14:54.830Z,10.57
2018-06-17T05:16:58.411Z,6.30
2018-06-17T05:19:01.935Z,5.50
2018-06-17T05:21:05.520Z,7.47
2018-06-17T05:23:08.996Z,7.53
2018-06-17T05:25:12.491Z,8.67
2018-06-17T05:27:16.017Z,6.57
2018-06-17T05:29:19.495Z,5.73
2018-06-17T05:31:23.016Z,4.43
2018-06-17T05:33:26.753Z,7.57
2018-06-17T05:35:30.260Z,5.40
2018-06-17T05:37:33.819Z,5.83
2018-06-17T05:39:37.291Z,7.30
2018-06-17T05:41:40.817Z,8.00
2018-06-17T05:43:44.410Z,9.67
2018-06-17T05:45:47.889Z,9.63
2018-06-17T05:47:51.371Z,8.27
2018-06-17T05:49:54.838Z,6.50
2018-06-17T05:51:58.338Z,5.33
2018-06-17T05:54:01.905Z,10.03
2018-06-17T05:56:05.909Z,6.40
2018-06-17T05:58:09.440Z,6.60
2018-06-17T06:00:12.915Z,7.27
2018-06-17T06:02:16.404Z,7.93
2018-06-17T06:04:19.924Z,7.57
2018-06-17T06:06:23.472Z,6.10
2018-06-17T06:08:27.005Z,5.83
2018-06-17T06:10:30.529Z,5.33
2018-06-17T06:12:34.008Z,11.77
2018-06-17T06:14:37.556Z,5.53
2018-06-17T06:16:41.192Z,8.83
2018-06-17T06:18:44.671Z,4.83
2018-06-17T06:20:48.707Z,7.80
2018-06-17T06:22:52.342Z,5.30
2018-06-17T06:24:55.887Z,11.43
2018-06-17T06:26:59.367Z,8.77
2018-06-17T06:29:02.835Z,5.90
2018-06-17T06:31:06.404Z,6.23
2018-06-17T06:33:09.934Z,5.50
2018-06-17T06:35:13.410Z,8.47
2018-06-17T06:37:16.964Z,8.10
2018-06-17T06:39:20.472Z,8.97
2018-06-17T06:41:23.963Z,12.93
2018-06-17T06:43:27.496Z,4.93
2018-06-17T06:45:31.013Z,6.90
2018-06-17T06:47:34.579Z,7.23
2018-06-17T06:49:38.047Z,7.07
2018-06-17T06:51:41.541Z,5.83
2018-06-17T06:53:45.166Z,5.60
2018-06-17T06:55:48.788Z,7.27
2018-06-17T06:57:52.340Z,5.60
2018-06-17T06:59:56.011Z,5.97
2018-06-17T07:02:10.646Z,5.67
2018-06-17T07:04:25.355Z,5.83
2018-06-17T07:06:39.943Z,6.27
2018-06-17T07:08:54.638Z,7.07
2018-06-17T07:10:58.135Z,7.63
2018-06-17T07:13:01.764Z,6.67
2018-06-17T07:15:05.280Z,6.67
2018-06-17T07:17:20.095Z,5.93
2018-06-17T07:19:23.597Z,7.83
2018-06-17T07:21:27.066Z,6.60
2018-06-17T07:23:30.784Z,4.87
2018-06-17T07:26:45.807Z,6.10
2018-06-17T07:29:00.520Z,4.87
2018-06-17T07:31:04.035Z,9.57
2018-06-17T07:33:07.568Z,11.23
2018-06-17T07:35:11.092Z,6.40
2018-06-17T07:37:14.675Z,6.57
2018-06-17T07:41:34.908Z,5.87
2018-06-17T07:43:38.375Z,5.47
2018-06-17T07:45:42.200Z,9.10
2018-06-17T07:47:45.698Z,5.63
2018-06-17T07:50:00.614Z,5.63
2018-06-17T07:52:16.376Z,8.33
2018-06-17T07:54:19.846Z,9.70
2018-06-17T07:56:23.334Z,4.90
2018-06-17T07:58:26.848Z,6.37
2018-06-17T08:00:30.372Z,6.83
2018-06-17T08:02:33.581Z,7.77
2018-06-17T08:04:37.197Z,6.33
2018-06-17T08:06:40.679Z,8.53
2018-06-17T08:08:44.241Z,6.47
2018-06-17T08:10:47.785Z,4.43
2018-06-17T08:12:51.220Z,7.03
2018-06-17T08:14:54.791Z,8.93
2018-06-17T08:16:58.629Z,5.53
2018-06-17T08:19:02.219Z,5.47
2018-06-17T08:21:05.761Z,6.20
2018-06-17T08:23:09.234Z,6.87
2018-06-17T08:25:12.361Z,7.40
2018-06-17T08:27:15.869Z,5.20
2018-06-17T08:29:19.375Z,7.77
2018-06-17T08:31:22.962Z,6.27
2018-06-17T08:33:26.524Z,4.67
2018-06-17T08:35:29.987Z,7.60
2018-06-17T08:37:33.519Z,6.33
2018-06-17T08:39:37.020Z,7.00
2018-06-17T08:41:40.772Z,6.70
2018-06-17T08:43:44.314Z,4.87
2018-06-17T08:45:48.000Z,5.03
2018-06-17T08:47:51.517Z,7.00
2018-06-17T08:49:55.003Z,6.30
2018-06-17T08:51:58.526Z,4.87
2018-06-17T08:54:01.994Z,5.70
2018-06-17T08:56:05.567Z,6.97
2018-06-17T08:58:09.091Z,7.70
2018-06-17T09:00:12.702Z,6.40
2018-06-17T09:02:16.312Z,5.07
2018-06-17T09:04:19.806Z,4.63
2018-06-17T09:06:23.757Z,8.63
2018-06-17T09:08:27.442Z,5.27
2018-06-17T09:10:30.596Z,5.17
2018-06-17T09:12:34.903Z,6.67
2018-06-17T09:14:38.374Z,4.80
2018-06-17T09:16:41.927Z,7.80
2018-06-17T09:18:45.613Z,4.93
2018-06-17T09:20:49.123Z,6.03
2018-06-17T09:22:52.598Z,6.20
2018-06-17T09:24:56.158Z,5.93
2018-06-17T09:26:59.659Z,7.07
2018-06-17T09:29:03.178Z,6.20
2018-06-17T09:31:06.843Z,8.00
2018-06-17T09:33:10.416Z,6.40
2018-06-17T09:35:13.712Z,9.30
2018-06-17T09:37:17.224Z,7.90
2018-06-17T09:39:20.747Z,4.90
2018-06-17T09:41:24.255Z,5.60
2018-06-17T09:43:27.931Z,6.23
2018-06-17T09:45:31.531Z,5.67
2018-06-17T09:47:35.147Z,6.90
2018-06-17T09:49:38.661Z,7.10
2018-06-17T09:51:42.167Z,6.67
2018-06-17T09:53:45.754Z,8.50
2018-06-17T09:55:49.314Z,6.80
2018-06-17T09:57:52.817Z,6.43
2018-06-17T09:59:56.281Z,6.30
2018-06-17T10:01:59.783Z,6.73
2018-06-17T10:04:03.335Z,7.87
2018-06-17T10:06:06.848Z,7.57
2018-06-17T10:08:10.358Z,7.00
2018-06-17T10:10:16.714Z,6.20
2018-06-17T10:12:20.199Z,7.87
2018-06-17T10:14:23.678Z,6.60
2018-06-17T10:16:27.233Z,7.77
2018-06-17T10:18:31.080Z,7.80
2018-06-17T10:20:34.704Z,6.03
2018-06-17T10:22:38.232Z,5.47
2018-06-17T10:24:41.716Z,4.93
2018-06-17T10:26:45.430Z,9.27
2018-06-17T10:28:49.043Z,6.77
2018-06-17T10:30:53.338Z,7.90
2018-06-17T10:32:56.939Z,11.87
2018-06-17T10:35:00.607Z,8.00
2018-06-17T10:37:04.213Z,6.10
2018-06-17T10:39:08.277Z,4.77
2018-06-17T10:41:11.751Z,6.67
2018-06-17T10:43:17.553Z,6.87
2018-06-17T10:45:21.033Z,7.30
2018-06-17T10:47:24.555Z,8.57
2018-06-17T10:49:28.101Z,13.07
2018-06-17T10:51:31.619Z,5.37
2018-06-17T10:53:35.096Z,6.43
2018-06-17T10:55:38.644Z,9.60
2018-06-17T10:57:42.563Z,5.70
2018-06-17T10:59:46.060Z,5.83
2018-06-17T11:01:49.539Z,9.50
2018-06-17T11:03:53.044Z,4.60
2018-06-17T11:05:56.625Z,4.90
2018-06-17T11:08:00.198Z,5.43
2018-06-17T11:10:04.671Z,8.67
2018-06-17T11:12:08.211Z,5.07
2018-06-17T11:14:11.395Z,6.10
2018-06-17T11:16:14.959Z,7.87
2018-06-17T11:18:18.454Z,6.93
2018-06-17T11:20:22.069Z,5.03
2018-06-17T11:22:25.640Z,3.73
2018-06-17T11:24:29.191Z,8.83
2018-06-17T11:26:32.693Z,4.73
2018-06-17T11:28:36.302Z,5.63
2018-06-17T11:30:39.453Z,5.80
2018-06-17T11:32:43.031Z,5.03
2018-06-17T11:34:46.537Z,5.53
2018-06-17T11:36:50.058Z,7.67
2018-06-17T11:38:53.594Z,4.70
2018-06-17T11:40:57.053Z,8.13
2018-06-17T11:43:00.615Z,3.80
2018-06-17T11:45:04.214Z,5.90
2018-06-17T11:47:07.727Z,3.87
2018-06-17T11:49:11.671Z,9.70
2018-06-17T11:51:15.166Z,4.87
2018-06-17T11:53:18.689Z,5.63
2018-06-17T11:55:22.180Z,6.97
2018-06-17T11:57:25.791Z,5.33
2018-06-17T11:59:29.259Z,7.07
2018-06-17T12:01:32.930Z,6.63
2018-06-17T12:03:36.302Z,4.33
2018-06-17T12:05:39.804Z,5.35
2018-06-17T12:07:43.320Z,4.55
2018-06-17T12:09:46.506Z,6.28
2018-06-17T12:11:50.179Z,3.67
2018-06-17T12:13:53.765Z,3.90
2018-06-17T12:15:57.247Z,4.37
2018-06-17T12:18:00.879Z,4.15
2018-06-17T12:20:04.436Z,5.05
2018-06-17T12:22:08.010Z,8.27
2018-06-17T12:24:11.543Z,4.80
2018-06-17T12:26:15.067Z,4.87
2018-06-17T12:28:18.570Z,4.57
2018-06-17T12:30:22.060Z,4.63
2018-06-17T12:32:25.819Z,3.67
2018-06-17T12:34:29.383Z,4.97
2018-06-17T12:36:32.950Z,4.37
2018-06-17T12:38:36.522Z,4.37
2018-06-17T12:40:40.048Z,6.83
2018-06-17T12:42:43.510Z,4.93
2018-06-17T12:44:47.019Z,4.50
2018-06-17T12:46:50.591Z,5.00
2018-06-17T12:48:54.503Z,4.60
2018-06-17T12:50:58.029Z,5.07
2018-06-17T12:53:01.655Z,5.80
2018-06-17T12:55:05.424Z,6.07
2018-06-17T12:57:08.988Z,6.47
2018-06-17T12:59:12.620Z,6.97
2018-06-17T13:01:16.131Z,5.00
2018-06-17T13:03:19.298Z,8.10
2018-06-17T13:05:22.878Z,5.30
2018-06-17T13:07:26.363Z,5.28
2018-06-17T13:09:29.910Z,5.30
2018-06-17T13:11:33.418Z,7.20
2018-06-17T13:13:37.020Z,2.97
2018-06-17T13:15:40.615Z,5.67
2018-06-17T13:17:44.155Z,20.70
2018-06-17T13:19:47.703Z,3.73
2018-06-17T13:21:51.197Z,5.08
2018-06-17T13:23:54.377Z,7.45
2018-06-17T13:25:57.870Z,5.47
2018-06-17T13:28:01.343Z,2.27
2018-06-17T13:30:05.093Z,4.55
2018-06-17T13:32:08.583Z,6.95
2018-06-17T13:34:12.059Z,6.27
2018-06-17T13:36:15.322Z,5.03
2018-06-17T13:38:18.858Z,6.23
2018-06-17T13:40:22.726Z,3.93
2018-06-17T13:42:26.243Z,5.40
2018-06-17T13:44:29.878Z,5.90
2018-06-17T13:46:33.532Z,3.67
2018-06-17T13:48:37.099Z,7.53
2018-06-17T13:50:40.640Z,4.45
2018-06-17T13:52:44.206Z,4.12
2018-06-17T13:54:47.691Z,4.03
2018-06-17T13:56:51.173Z,4.73
2018-06-17T13:58:54.716Z,4.33
2018-06-17T14:00:58.259Z,6.83
2018-06-17T14:03:01.817Z,3.87
2018-06-17T14:05:05.728Z,5.85
2018-06-17T14:07:09.282Z,4.97
2018-06-17T14:09:12.902Z,4.03
2018-06-17T14:11:16.430Z,7.80
2018-06-17T14:13:19.979Z,3.47
2018-06-17T14:15:23.476Z,6.17
2018-06-17T14:17:26.994Z,5.83
2018-06-17T14:19:30.549Z,3.63
2018-06-17T14:21:34.060Z,7.00
2018-06-17T14:23:37.578Z,6.27
2018-06-17T14:25:41.160Z,4.93
2018-06-17T14:27:44.640Z,3.67
2018-06-17T14:29:48.226Z,6.85
2018-06-17T14:31:51.735Z,11.23
2018-06-17T14:33:55.588Z,6.63
2018-06-17T14:35:59.064Z,5.10
2018-06-17T14:38:02.382Z,6.60
2018-06-17T14:40:06.025Z,7.53
2018-06-17T14:42:14.778Z,4.83
2018-06-17T14:44:23.505Z,4.70
2018-06-17T14:46:32.111Z,4.17
2018-06-17T14:48:40.940Z,6.10
2018-06-17T14:50:49.786Z,4.50
2018-06-17T14:53:03.175Z,6.87
2018-06-17T14:55:06.760Z,5.00
2018-06-17T14:57:10.297Z,9.80
2018-06-17T14:59:13.855Z,6.87
2018-06-17T15:01:17.524Z,5.30
2018-06-17T15:03:21.090Z,4.73
2018-06-17T15:05:24.674Z,4.50
2018-06-17T15:07:28.189Z,5.37
2018-06-17T15:09:31.874Z,6.47
2018-06-17T15:11:35.377Z,7.63
2018-06-17T15:13:38.879Z,4.70
2018-06-17T15:15:42.066Z,7.77
2018-06-17T15:17:45.588Z,4.17
2018-06-17T15:19:49.235Z,7.27
2018-06-17T15:21:52.778Z,5.70
2018-06-17T15:23:56.410Z,4.23
2018-06-17T15:25:59.909Z,4.20
2018-06-17T15:28:03.415Z,5.00
2018-06-17T15:30:06.842Z,6.25
2018-06-17T15:32:15.717Z,4.13
2018-06-17T15:34:24.434Z,4.77
2018-06-17T15:36:33.368Z,4.67
2018-06-17T15:38:42.130Z,5.93
2018-06-17T15:40:50.932Z,5.53
2018-06-17T15:42:54.463Z,3.93
2018-06-17T15:44:57.992Z,3.10
2018-06-17T15:47:01.499Z,7.00
2018-06-17T15:49:05.025Z,7.77
2018-06-17T15:51:08.631Z,5.60
2018-06-17T15:53:12.133Z,6.67
2018-06-17T15:55:15.650Z,5.33
2018-06-17T15:57:19.152Z,6.47
2018-06-17T15:59:22.643Z,5.13
2018-06-17T16:01:26.176Z,5.73
2018-06-17T16:03:29.629Z,7.03
2018-06-17T16:05:33.119Z,9.57
2018-06-17T16:07:36.652Z,5.63
2018-06-17T16:09:39.853Z,3.67
2018-06-17T16:11:48.619Z,4.97
2018-06-17T16:13:57.355Z,6.70
2018-06-17T16:16:06.139Z,9.00
2018-06-17T16:18:14.736Z,3.67
2018-06-17T16:20:23.525Z,5.10
2018-06-17T16:22:27.092Z,5.73
2018-06-17T16:24:30.640Z,5.57
2018-06-17T16:26:34.147Z,3.73
2018-06-17T16:28:37.728Z,2.67
2018-06-17T16:30:41.248Z,3.80
2018-06-17T16:34:54.473Z,10.13
2018-06-17T16:36:57.963Z,9.03
2018-06-17T16:39:01.453Z,5.57
2018-06-17T16:41:05.046Z,4.50
2018-06-17T16:43:08.532Z,3.73
2018-06-17T16:45:12.027Z,4.17
2018-06-17T16:47:15.502Z,5.43
2018-06-17T16:49:18.995Z,6.23
2018-06-17T16:51:27.779Z,3.77
2018-06-17T16:53:36.463Z,4.63
2018-06-17T16:55:45.415Z,4.60
2018-06-17T16:57:54.191Z,4.20
2018-06-17T17:00:00.608Z,7.50
2018-06-17T17:02:04.109Z,8.27
2018-06-17T17:04:07.658Z,5.33
2018-06-17T17:06:11.189Z,4.80
2018-06-17T17:08:14.743Z,5.47
2018-06-17T17:10:18.350Z,8.00
2018-06-17T17:12:21.884Z,14.43
2018-06-17T17:14:25.359Z,7.37
2018-06-17T17:16:28.928Z,7.47
2018-06-17T17:18:32.564Z,5.40
2018-06-17T17:20:36.050Z,6.57
2018-06-17T17:22:39.623Z,7.47
2018-06-17T17:24:43.100Z,6.13
2018-06-17T17:26:46.257Z,4.97
2018-06-17T17:28:49.755Z,9.50
2018-06-17T17:30:53.246Z,12.60
2018-06-17T17:33:02.061Z,7.30
2018-06-17T17:35:10.947Z,4.93
2018-06-17T17:37:19.750Z,6.33
2018-06-17T17:39:28.588Z,5.67
2018-06-17T17:41:32.152Z,6.97
2018-06-17T17:43:35.293Z,7.23
2018-06-17T17:46:44.682Z,5.27
2018-06-17T17:48:48.183Z,5.07
2018-06-17T17:50:51.697Z,3.97
2018-06-17T17:52:55.211Z,4.43
2018-06-17T17:54:58.766Z,4.43
2018-06-17T17:57:02.338Z,7.73
2018-06-17T17:59:05.822Z,7.20
2018-06-17T18:01:09.352Z,11.40
2018-06-17T18:03:13.035Z,16.07
2018-06-17T18:05:16.577Z,6.03
2018-06-17T18:07:20.095Z,6.80
2018-06-17T18:09:23.585Z,5.53
2018-06-17T18:11:27.075Z,7.67
2018-06-17T18:13:30.673Z,6.03
2018-06-17T18:15:34.164Z,7.90
2018-06-17T18:17:37.683Z,7.90
2018-06-17T18:19:47.687Z,7.63
2018-06-17T18:21:50.842Z,5.90
2018-06-17T18:23:54.352Z,4.80
2018-06-17T18:26:03.103Z,6.17
2018-06-17T18:28:11.780Z,4.50
2018-06-17T18:30:20.476Z,7.43
2018-06-17T18:32:29.156Z,4.30
2018-06-17T18:34:37.835Z,5.27
2018-06-17T18:36:41.552Z,4.47
2018-06-17T18:38:46.505Z,7.63
2018-06-17T18:40:50.256Z,6.23
2018-06-17T18:42:53.825Z,5.17
2018-06-17T18:44:57.567Z,5.10
2018-06-17T18:47:01.184Z,4.57
2018-06-17T18:49:04.730Z,7.87
2018-06-17T18:51:08.204Z,5.27
2018-06-17T18:53:11.810Z,6.53
2018-06-17T18:55:15.389Z,7.60
2018-06-17T18:57:18.804Z,5.80
2018-06-17T18:59:22.338Z,4.27
2018-06-17T19:01:25.922Z,4.53
2018-06-17T19:03:29.440Z,4.27
2018-06-17T19:05:32.911Z,6.70
2018-06-17T19:07:36.403Z,6.50
2018-06-17T19:09:45.299Z,5.33
2018-06-17T19:11:54.090Z,5.37
2018-06-17T19:15:00.478Z,3.80
2018-06-17T19:17:09.145Z,6.17
2018-06-17T19:19:12.691Z,7.27
2018-06-17T19:21:16.307Z,5.07
2018-06-17T19:23:19.827Z,4.47
2018-06-17T19:25:23.840Z,3.93
2018-06-17T19:27:27.333Z,8.27
2018-06-17T19:29:30.901Z,8.23
2018-06-17T19:31:34.420Z,5.87
2018-06-17T19:33:37.947Z,6.93
2018-06-17T19:35:41.452Z,5.50
2018-06-17T19:37:45.052Z,4.77
2018-06-17T19:39:48.580Z,4.77
2018-06-17T19:41:52.097Z,5.47
2018-06-17T19:43:55.642Z,3.57
2018-06-17T19:45:59.181Z,4.97
2018-06-17T19:48:02.692Z,5.63
2018-06-17T19:50:11.905Z,6.87
2018-06-17T19:52:20.622Z,4.40
2018-06-17T19:54:29.405Z,4.17
2018-06-17T19:56:38.230Z,4.40
2018-06-17T19:58:50.768Z,9.23
2018-06-17T20:01:01.015Z,6.33
2018-06-17T20:03:05.180Z,5.17
2018-06-17T20:05:08.819Z,5.63
2018-06-17T20:07:12.326Z,7.37
2018-06-17T20:09:15.880Z,5.30
2018-06-17T20:11:20.292Z,6.07
2018-06-17T20:13:23.561Z,4.97
2018-06-17T20:15:27.130Z,7.77
2018-06-17T20:17:30.747Z,6.40
2018-06-17T20:19:34.385Z,7.83
2018-06-17T20:21:37.916Z,6.00
2018-06-17T20:23:41.420Z,4.60
2018-06-17T20:25:44.992Z,6.73
2018-06-17T20:27:48.483Z,6.07
2018-06-17T20:29:52.172Z,6.47
2018-06-17T20:32:00.986Z,6.03
2018-06-17T20:34:09.651Z,6.00
2018-06-17T20:36:18.464Z,3.23
2018-06-17T20:38:27.187Z,5.47
2018-06-17T20:40:36.014Z,5.87
2018-06-17T20:42:44.824Z,8.40
2018-06-17T20:44:48.412Z,7.43
2018-06-17T20:46:51.944Z,5.30
2018-06-17T20:48:55.129Z,5.60
2018-06-17T20:50:58.619Z,4.30
2018-06-17T20:53:02.147Z,6.63
2018-06-17T20:55:06.695Z,7.80
2018-06-17T20:57:10.320Z,6.17
2018-06-17T20:59:13.853Z,5.10
2018-06-17T21:01:16.992Z,5.60
2018-06-17T21:03:20.597Z,4.40
2018-06-17T21:05:24.216Z,7.73
2018-06-17T21:07:33.984Z,6.27
2018-06-17T21:09:37.468Z,9.23
2018-06-17T21:11:41.049Z,7.10
2018-06-17T21:13:44.511Z,5.43
2018-06-17T21:15:48.018Z,5.67
2018-06-17T21:17:51.935Z,5.03
2018-06-17T21:20:02.033Z,7.70
2018-06-17T21:22:10.846Z,6.43
2018-06-17T21:24:19.546Z,5.83
2018-06-17T21:26:27.999Z,5.27
2018-06-17T21:28:31.481Z,7.93
2018-06-17T21:30:35.017Z,4.63
2018-06-17T21:32:39.240Z,4.70
2018-06-17T21:34:42.754Z,7.67
2018-06-17T21:36:46.255Z,9.00
2018-06-17T21:38:49.756Z,5.90
2018-06-17T21:40:53.262Z,7.40
2018-06-17T21:42:56.750Z,4.80
2018-06-17T21:45:00.264Z,5.90
2018-06-17T21:47:03.750Z,5.20
2018-06-17T21:49:07.350Z,7.60
2018-06-17T21:51:10.907Z,4.67
2018-06-17T21:53:14.455Z,6.27
2018-06-17T21:55:17.983Z,3.17
2018-06-17T21:57:21.489Z,6.57
2018-06-17T21:59:25.009Z,5.20
2018-06-17T22:01:28.220Z,5.30
2018-06-17T22:03:31.808Z,6.97
2018-06-17T22:05:35.280Z,6.30
2018-06-17T22:07:44.126Z,8.57
2018-06-17T22:09:52.979Z,4.43
2018-06-17T22:12:01.843Z,3.43
2018-06-17T22:15:11.139Z,5.83
2018-06-17T22:17:19.742Z,4.27
2018-06-17T22:19:23.378Z,5.63
2018-06-17T22:21:26.851Z,7.43
2018-06-17T22:23:30.487Z,5.40
2018-06-17T22:25:34.024Z,5.27
2018-06-17T22:27:37.496Z,7.30
2018-06-17T22:29:41.003Z,5.10
2018-06-17T22:31:44.616Z,4.27
2018-06-17T22:33:48.145Z,5.03
2018-06-17T22:35:51.694Z,5.23
2018-06-17T22:37:55.191Z,4.87
2018-06-17T22:39:58.724Z,4.63
2018-06-17T22:42:02.222Z,4.00
2018-06-17T22:44:05.812Z,6.07
2018-06-17T22:46:09.425Z,10.17
2018-06-17T22:48:19.267Z,5.17
2018-06-17T22:50:22.753Z,5.47
2018-06-17T22:52:26.293Z,7.13
2018-06-17T22:54:40.991Z,7.20
2018-06-17T22:56:49.783Z,5.97
2018-06-17T22:58:58.576Z,4.97
2018-06-17T23:01:07.375Z,4.90
2018-06-17T23:03:16.073Z,8.53
2018-06-17T23:05:24.859Z,6.37
2018-06-17T23:07:33.622Z,7.27
2018-06-17T23:09:39.231Z,5.53
2018-06-17T23:11:43.704Z,8.03
2018-06-17T23:13:47.289Z,6.47
2018-06-17T23:15:50.965Z,4.27
2018-06-17T23:17:54.451Z,8.87
2018-06-17T23:19:58.043Z,6.13
2018-06-17T23:22:01.631Z,5.97
2018-06-17T23:24:05.222Z,3.97
2018-06-17T23:26:08.758Z,5.33
2018-06-17T23:28:12.334Z,4.53
2018-06-17T23:30:15.967Z,10.07
2018-06-17T23:32:19.506Z,6.70
2018-06-17T23:34:22.963Z,5.20
2018-06-17T23:36:26.639Z,6.93
2018-06-17T23:38:30.247Z,5.00
2018-06-17T23:40:33.709Z,6.37
2018-06-17T23:42:40.260Z,3.77
2018-06-17T23:44:44.019Z,6.90
2018-06-17T23:46:52.764Z,8.97
2018-06-17T23:49:01.498Z,5.70
2018-06-17T23:51:10.256Z,6.03
2018-06-17T23:54:21.683Z,5.33
2018-06-17T23:56:25.302Z,5.33
2018-06-17T23:58:28.767Z,5.93
